Acushnet, Massachusetts
Current Conditions -  °F | °C
As of 10:53 AM on Monday 26 Jan 2015 (Local Time) from KEWB Reporting Station
Overcast Overcast  
Wind Chill: 16°   Ceiling: 4300
Heat Index: 24°   Visibility: 10mi
Dew Point: 15°   Wind: 7mph
Humidity: 69%   Direction: 20°NNE
Pressure: 30.07"   Gusts: NA
Location:  41.68°N, 70.91°W
Report Text: KEWB 261553Z 02006KT 10SM OVC043 M04/M09 A3007 RMK AO2 SLP184 T10441094
Loading
Personal Weather Stations






























Interactive Weather Map New forecast layout! Learn more

10-Day Weather Forecast

Advertisements
Track Severe Weather on mobile